Time;durP1;ratioP1;P1;durP2;ratioP2;P2;SDS_P1;SDS_P2;PMS_P1;PMS_P2;Temp;Humidity;BMP_temperature;BMP_pressure;BME280_temperature;BME280_humidity;BME280_pressure;Samples;Min_cycle;Max_cycle;Signal;HPM_P1;HPM_P2
2022/12/20 00:01:27;;;;;;;22.63;8.82;;;;;;;;;;5076649;28;20044;-86
2022/12/20 00:03:56;;;;;;;29.95;10.27;;;;;;;;;;5072268;28;20045;-87
2022/12/20 00:06:25;;;;;;;28.40;10.52;;;;;;;;;;5068835;28;20032;-87
2022/12/20 00:08:58;;;;;;;24.33;9.30;;;;;;;;;;5068609;28;20089;-88
2022/12/20 00:11:27;;;;;;;26.65;9.05;;;;;;;;;;5073965;28;20040;-87
2022/12/20 00:13:55;;;;;;;22.92;9.02;;;;;;;;;;5042060;28;20045;-87
2022/12/20 00:16:53;;;;;;;18.23;8.30;;;;;;;;;;5070069;28;20041;-88
2022/12/20 00:19:20;;;;;;;22.08;8.30;;;;;;;;;;5055356;28;20124;-87
2022/12/20 00:21:52;;;;;;;25.42;8.77;;;;;;;;;;5075197;28;20040;-87
2022/12/20 00:24:44;;;;;;;26.13;8.70;;;;;;;;;;5073587;28;20051;-88
2022/12/20 00:27:36;;;;;;;19.38;7.78;;;;;;;;;;5068250;28;20604;-87
2022/12/20 00:30:05;;;;;;;21.05;8.18;;;;;;;;;;5052841;28;20120;-86
2022/12/20 00:32:44;;;;;;;20.35;7.40;;;;;;;;;;5071058;28;20454;-88
2022/12/20 00:35:12;;;;;;;16.23;7.88;;;;;;;;;;5073029;28;20735;-88
2022/12/20 00:37:40;;;;;;;22.42;9.00;;;;;;;;;;5055960;28;20040;-87
2022/12/20 00:40:08;;;;;;;21.33;8.25;;;;;;;;;;5041314;28;20064;-87
2022/12/20 00:42:36;;;;;;;19.17;8.05;;;;;;;;;;5049685;28;20098;-87
2022/12/20 00:45:04;;;;;;;23.95;8.38;;;;;;;;;;5055886;28;20405;-87
2022/12/20 00:47:32;;;;;;;16.48;7.40;;;;;;;;;;5071162;28;20148;-88
2022/12/20 00:50:00;;;;;;;24.77;8.48;;;;;;;;;;5054554;28;20033;-87
2022/12/20 00:52:28;;;;;;;23.58;7.65;;;;;;;;;;5061734;28;20512;-87
2022/12/20 00:55:03;;;;;;;17.58;7.50;;;;;;;;;;5060004;28;20041;-88
2022/12/20 00:57:30;;;;;;;25.42;8.43;;;;;;;;;;5054957;28;20371;-87
2022/12/20 00:59:58;;;;;;;22.92;8.60;;;;;;;;;;5073075;28;20171;-87
2022/12/20 01:02:26;;;;;;;19.52;8.38;;;;;;;;;;5070565;28;20051;-86
2022/12/20 01:05:18;;;;;;;19.50;7.82;;;;;;;;;;5056302;28;20021;-87
2022/12/20 01:07:57;;;;;;;21.17;8.30;;;;;;;;;;5075597;28;20101;-88
2022/12/20 01:10:29;;;;;;;22.77;8.13;;;;;;;;;;5062018;28;20120;-87
2022/12/20 01:13:02;;;;;;;22.73;8.40;;;;;;;;;;5075150;28;20041;-87
2022/12/20 01:15:30;;;;;;;23.60;8.13;;;;;;;;;;5074568;28;20043;-87
2022/12/20 01:18:02;;;;;;;27.08;8.00;;;;;;;;;;5076928;28;20460;-87
2022/12/20 01:20:34;;;;;;;18.60;7.65;;;;;;;;;;5074100;28;20037;-87
2022/12/20 01:23:02;;;;;;;19.80;7.57;;;;;;;;;;5046106;28;20041;-87
2022/12/20 01:25:30;;;;;;;18.80;7.85;;;;;;;;;;5035185;28;20575;-87
2022/12/20 01:28:02;;;;;;;19.35;8.38;;;;;;;;;;5074191;28;20071;-87
2022/12/20 01:30:30;;;;;;;22.73;8.30;;;;;;;;;;5073568;28;20116;-87
2022/12/20 01:33:02;;;;;;;17.58;7.55;;;;;;;;;;5073104;28;20522;-87
2022/12/20 01:35:30;;;;;;;16.00;7.38;;;;;;;;;;5071110;28;20037;-87
2022/12/20 01:37:58;;;;;;;17.00;7.55;;;;;;;;;;5069521;28;20064;-87
2022/12/20 01:40:32;;;;;;;22.77;7.97;;;;;;;;;;5069210;28;20033;-86
2022/12/20 01:43:00;;;;;;;22.23;8.35;;;;;;;;;;5056001;28;20093;-87
2022/12/20 01:45:31;;;;;;;19.88;7.47;;;;;;;;;;5055979;28;20050;-87
2022/12/20 01:48:00;;;;;;;20.67;7.88;;;;;;;;;;5055529;28;20040;-88
2022/12/20 01:50:52;;;;;;;19.48;7.85;;;;;;;;;;5071288;28;20034;-88
2022/12/20 01:53:26;;;;;;;21.10;7.65;;;;;;;;;;5073115;28;20129;-88
2022/12/20 01:55:54;;;;;;;26.55;7.95;;;;;;;;;;5072196;28;20405;-87
2022/12/20 01:58:22;;;;;;;19.30;7.78;;;;;;;;;;5057400;28;20036;-87
2022/12/20 02:00:50;;;;;;;17.80;8.00;;;;;;;;;;5054083;28;20071;-87
2022/12/20 02:03:18;;;;;;;23.48;8.05;;;;;;;;;;5069731;28;20086;-87
2022/12/20 02:05:46;;;;;;;17.88;8.00;;;;;;;;;;5074724;28;20040;-88
2022/12/20 02:08:18;;;;;;;22.50;7.40;;;;;;;;;;5072868;28;20036;-88
2022/12/20 02:11:08;;;;;;;20.65;7.88;;;;;;;;;;5070815;28;20043;-88
2022/12/20 02:13:57;;;;;;;21.95;7.75;;;;;;;;;;5071544;28;20036;-87
2022/12/20 02:16:28;;;;;;;19.20;7.18;;;;;;;;;;5063587;28;20072;-87
2022/12/20 02:19:20;;;;;;;16.60;7.68;;;;;;;;;;5066171;28;20094;-87
2022/12/20 02:22:04;;;;;;;19.20;7.97;;;;;;;;;;5069482;28;20044;-88
2022/12/20 02:24:57;;;;;;;16.17;7.10;;;;;;;;;;5056923;28;20474;-88
2022/12/20 02:27:40;;;;;;;16.90;7.40;;;;;;;;;;5074808;28;20090;-88
2022/12/20 02:30:17;;;;;;;16.85;7.53;;;;;;;;;;5062947;28;20497;-87
2022/12/20 02:33:13;;;;;;;19.95;7.35;;;;;;;;;;5060139;28;20032;-85
2022/12/20 02:35:41;;;;;;;18.92;7.43;;;;;;;;;;5055212;28;20093;-88
2022/12/20 02:38:37;;;;;;;18.10;6.65;;;;;;;;;;5060969;28;20040;-88
2022/12/20 02:41:27;;;;;;;17.65;6.57;;;;;;;;;;5056198;28;20123;-88
2022/12/20 02:46:57;;;;;;;15.38;7.00;;;;;;;;;;5070232;28;20036;-88
2022/12/20 02:49:29;;;;;;;15.95;7.45;;;;;;;;;;5067057;28;20371;-87
2022/12/20 02:52:47;;;;;;;18.52;6.82;;;;;;;;;;5067988;28;20044;-87
2022/12/20 02:55:14;;;;;;;16.67;7.00;;;;;;;;;;5054723;28;20494;-87
2022/12/20 03:00:58;;;;;;;23.10;7.35;;;;;;;;;;5065191;28;20086;-88
2022/12/20 03:03:36;;;;;;;17.45;6.80;;;;;;;;;;5071341;28;20032;-88
2022/12/20 03:06:09;;;;;;;17.98;7.05;;;;;;;;;;5072271;28;20040;-87
2022/12/20 03:08:38;;;;;;;15.15;6.20;;;;;;;;;;5046905;28;20135;-88
2022/12/20 03:11:30;;;;;;;14.25;6.75;;;;;;;;;;5076045;28;20394;-88
2022/12/20 03:13:58;;;;;;;18.17;6.82;;;;;;;;;;5056207;28;20048;-87
2022/12/20 03:16:26;;;;;;;18.38;7.07;;;;;;;;;;5055121;28;20044;-87
2022/12/20 03:18:54;;;;;;;17.15;6.70;;;;;;;;;;5057107;28;20512;-88
2022/12/20 03:21:26;;;;;;;16.67;6.55;;;;;;;;;;5074631;28;20037;-88
2022/12/20 03:23:54;;;;;;;11.18;6.38;;;;;;;;;;5076116;28;20119;-87
2022/12/20 03:26:26;;;;;;;15.35;5.80;;;;;;;;;;5055789;28;20498;-87
2022/12/20 03:28:58;;;;;;;18.98;6.40;;;;;;;;;;5056304;28;20051;-87
2022/12/20 03:31:50;;;;;;;14.90;6.07;;;;;;;;;;5072245;28;20545;-87
2022/12/20 03:34:18;;;;;;;14.25;6.43;;;;;;;;;;5059855;28;20041;-88
2022/12/20 03:36:50;;;;;;;16.80;6.28;;;;;;;;;;5060528;28;20042;-88
2022/12/20 03:39:18;;;;;;;18.15;6.03;;;;;;;;;;5070237;28;20505;-88
2022/12/20 03:41:46;;;;;;;14.20;7.30;;;;;;;;;;5057654;28;20032;-88
2022/12/20 03:44:18;;;;;;;13.95;6.05;;;;;;;;;;5073922;28;20144;-88
2022/12/20 03:46:46;;;;;;;18.83;6.05;;;;;;;;;;5068691;28;20056;-88
2022/12/20 03:49:14;;;;;;;12.05;6.68;;;;;;;;;;5072235;28;20044;-87
2022/12/20 03:51:46;;;;;;;17.08;5.95;;;;;;;;;;5058128;28;20040;-87
2022/12/20 03:54:14;;;;;;;15.43;6.45;;;;;;;;;;5074349;28;20047;-89
2022/12/20 03:57:04;;;;;;;15.65;6.47;;;;;;;;;;5059803;28;20486;-87
2022/12/20 03:59:32;;;;;;;16.02;6.25;;;;;;;;;;5052443;28;20075;-87
2022/12/20 04:02:06;;;;;;;13.05;6.05;;;;;;;;;;5073574;28;20043;-88
2022/12/20 04:04:34;;;;;;;13.98;6.18;;;;;;;;;;5028841;28;20163;-87
2022/12/20 04:07:02;;;;;;;14.10;5.75;;;;;;;;;;5069568;28;20040;-87
2022/12/20 04:09:30;;;;;;;12.40;5.85;;;;;;;;;;5055072;28;20147;-87
2022/12/20 04:12:22;;;;;;;12.63;6.20;;;;;;;;;;5045693;28;20032;-88
2022/12/20 04:15:14;;;;;;;12.02;6.28;;;;;;;;;;5055705;28;20032;-88
2022/12/20 04:18:06;;;;;;;15.38;5.72;;;;;;;;;;5069855;28;21837;-87
2022/12/20 04:20:38;;;;;;;12.68;5.60;;;;;;;;;;5059896;28;20081;-87
2022/12/20 04:23:16;;;;;;;14.98;5.60;;;;;;;;;;5056850;28;20075;-87
2022/12/20 04:25:51;;;;;;;12.73;5.05;;;;;;;;;;5068721;28;20040;-88
2022/12/20 04:28:24;;;;;;;13.55;5.68;;;;;;;;;;5069622;28;20119;-88
2022/12/20 04:30:55;;;;;;;12.50;5.88;;;;;;;;;;5054140;28;20478;-87
2022/12/20 04:33:26;;;;;;;14.73;5.60;;;;;;;;;;5052945;28;20032;-88
2022/12/20 04:35:55;;;;;;;14.05;6.32;;;;;;;;;;5059300;28;20051;-87
2022/12/20 04:38:28;;;;;;;12.05;5.20;;;;;;;;;;5074590;28;20045;-87
2022/12/20 04:40:56;;;;;;;13.93;5.70;;;;;;;;;;5071155;28;20127;-87
2022/12/20 04:43:26;;;;;;;12.00;5.53;;;;;;;;;;5058051;28;20102;-88
2022/12/20 04:46:00;;;;;;;13.15;5.40;;;;;;;;;;5057166;28;20047;-88
2022/12/20 04:48:28;;;;;;;11.70;5.50;;;;;;;;;;5054374;28;20040;-87
2022/12/20 04:51:17;;;;;;;12.43;5.68;;;;;;;;;;5071690;28;20041;-88
2022/12/20 04:53:47;;;;;;;19.30;5.88;;;;;;;;;;5071561;28;20090;-87
2022/12/20 04:56:28;;;;;;;11.88;6.05;;;;;;;;;;5044206;28;20032;-88
2022/12/20 04:59:09;;;;;;;14.90;6.63;;;;;;;;;;5061058;28;20032;-88
2022/12/20 05:01:38;;;;;;;11.90;5.43;;;;;;;;;;5048218;28;20039;-87
2022/12/20 05:04:16;;;;;;;16.20;5.85;;;;;;;;;;5040994;28;20134;-87
2022/12/20 05:06:44;;;;;;;15.70;6.13;;;;;;;;;;5057283;28;20119;-88
2022/12/20 05:09:36;;;;;;;11.93;5.95;;;;;;;;;;5072824;28;20092;-88
2022/12/20 05:12:28;;;;;;;19.75;6.55;;;;;;;;;;5076707;28;20044;-87
2022/12/20 05:15:20;;;;;;;12.23;5.22;;;;;;;;;;5073983;28;20040;-87
2022/12/20 05:18:12;;;;;;;11.80;5.63;;;;;;;;;;5072681;28;20058;-88
2022/12/20 05:26:16;;;;;;;11.30;5.43;;;;;;;;;;5055815;28;20094;-88
2022/12/20 05:27:00;;;;;;;12.68;5.40;;;;;;;;;;5059624;28;20044;-87
2022/12/20 05:29:32;;;;;;;14.20;5.43;;;;;;;;;;5052938;28;20131;-88
2022/12/20 05:32:00;;;;;;;16.20;5.93;;;;;;;;;;5037989;28;20049;-87
2022/12/20 05:34:52;;;;;;;10.18;5.63;;;;;;;;;;5071193;28;20324;-88
2022/12/20 05:37:48;;;;;;;15.32;5.22;;;;;;;;;;5075354;28;20067;-87
2022/12/20 05:40:21;;;;;;;11.20;5.57;;;;;;;;;;5043411;28;20041;-88
2022/12/20 05:42:48;;;;;;;10.32;5.07;;;;;;;;;;5059350;28;20044;-87
2022/12/20 05:45:16;;;;;;;12.07;6.38;;;;;;;;;;5060869;28;20036;-87
2022/12/20 05:47:54;;;;;;;13.90;6.47;;;;;;;;;;5045245;28;20028;-87
2022/12/20 05:50:46;;;;;;;17.33;6.60;;;;;;;;;;5065275;28;20047;-87
2022/12/20 05:53:27;;;;;;;13.45;6.25;;;;;;;;;;5056382;28;20044;-88
2022/12/20 05:56:20;;;;;;;17.55;6.40;;;;;;;;;;5077025;28;20405;-88
2022/12/20 05:59:12;;;;;;;15.02;6.20;;;;;;;;;;5071429;28;20041;-88
2022/12/20 06:02:06;;;;;;;15.98;6.13;;;;;;;;;;5049332;28;20032;-88
2022/12/20 06:04:37;;;;;;;13.32;6.35;;;;;;;;;;5052409;28;20068;-87
2022/12/20 06:07:12;;;;;;;17.52;6.78;;;;;;;;;;5053818;28;20044;-87
2022/12/20 06:09:57;;;;;;;14.50;6.20;;;;;;;;;;5054684;28;20041;-87
2022/12/20 06:12:56;;;;;;;16.83;6.10;;;;;;;;;;5055872;28;20047;-86
2022/12/20 06:15:24;;;;;;;13.63;6.40;;;;;;;;;;5055282;28;20041;-88
2022/12/20 06:17:52;;;;;;;17.13;6.63;;;;;;;;;;5073684;28;20044;-88
2022/12/20 06:20:24;;;;;;;16.05;6.82;;;;;;;;;;5053779;28;20114;-87
2022/12/20 06:22:52;;;;;;;13.43;6.72;;;;;;;;;;5039510;28;20049;-88
2022/12/20 06:25:20;;;;;;;14.88;6.20;;;;;;;;;;5058511;28;21011;-88
2022/12/20 06:27:53;;;;;;;14.80;6.60;;;;;;;;;;5054717;28;20042;-89
2022/12/20 06:30:20;;;;;;;11.43;6.38;;;;;;;;;;5066819;28;20036;-88
2022/12/20 06:33:05;;;;;;;17.60;6.53;;;;;;;;;;5054620;28;20039;-87
2022/12/20 06:35:35;;;;;;;13.38;6.78;;;;;;;;;;5068644;28;20036;-88
2022/12/20 06:38:35;;;;;;;20.58;7.97;;;;;;;;;;5057148;28;20135;-88
2022/12/20 06:41:05;;;;;;;12.98;6.55;;;;;;;;;;5038085;28;20040;-88
2022/12/20 06:43:35;;;;;;;13.20;6.00;;;;;;;;;;5072794;28;20039;-88
2022/12/20 06:46:05;;;;;;;17.25;6.63;;;;;;;;;;5062194;28;20040;-88
2022/12/20 06:48:37;;;;;;;17.95;6.72;;;;;;;;;;5066974;28;20134;-89
2022/12/20 06:51:06;;;;;;;14.60;6.53;;;;;;;;;;5056073;28;20047;-89
2022/12/20 06:53:34;;;;;;;14.63;6.45;;;;;;;;;;5062533;28;20043;-89
2022/12/20 06:56:03;;;;;;;17.02;6.97;;;;;;;;;;5052972;28;20040;-89
2022/12/20 06:58:36;;;;;;;19.08;7.03;;;;;;;;;;5066385;28;20490;-89
2022/12/20 07:01:04;;;;;;;20.33;6.97;;;;;;;;;;5067306;28;20039;-88
2022/12/20 07:03:36;;;;;;;15.02;7.15;;;;;;;;;;5056627;28;20040;-88
2022/12/20 07:06:04;;;;;;;15.13;6.63;;;;;;;;;;5073310;28;20565;-89
2022/12/20 07:08:32;;;;;;;16.15;6.95;;;;;;;;;;5069988;28;20046;-88
2022/12/20 07:11:07;;;;;;;16.52;6.50;;;;;;;;;;5068556;28;20045;-89
2022/12/20 07:13:40;;;;;;;15.48;7.47;;;;;;;;;;5053166;28;20513;-88
2022/12/20 07:16:08;;;;;;;14.02;6.95;;;;;;;;;;5073843;28;20125;-88
2022/12/20 07:18:42;;;;;;;13.93;6.85;;;;;;;;;;5054470;28;20058;-88
2022/12/20 07:21:12;;;;;;;13.73;7.22;;;;;;;;;;5059112;28;20041;-88
2022/12/20 07:23:46;;;;;;;16.50;6.30;;;;;;;;;;5074724;28;20050;-89
2022/12/20 07:26:14;;;;;;;17.73;6.97;;;;;;;;;;5071955;28;20128;-88
2022/12/20 07:28:42;;;;;;;14.63;6.93;;;;;;;;;;5072718;28;20116;-88
2022/12/20 07:31:10;;;;;;;18.52;7.53;;;;;;;;;;5059521;28;20036;-88
2022/12/20 07:33:38;;;;;;;17.75;7.00;;;;;;;;;;5070643;28;20415;-89
2022/12/20 07:36:10;;;;;;;17.08;7.47;;;;;;;;;;5055321;28;20040;-88
2022/12/20 07:38:42;;;;;;;17.85;6.90;;;;;;;;;;5058530;28;20032;-88
2022/12/20 07:41:13;;;;;;;17.45;6.90;;;;;;;;;;5055452;28;20394;-88
2022/12/20 07:43:41;;;;;;;18.85;7.68;;;;;;;;;;5056226;28;20430;-88
2022/12/20 07:46:13;;;;;;;19.00;7.10;;;;;;;;;;5057498;28;20039;-88
2022/12/20 07:48:46;;;;;;;17.52;7.25;;;;;;;;;;5074202;28;20533;-89
2022/12/20 07:51:20;;;;;;;20.88;7.35;;;;;;;;;;5053647;28;20094;-89
2022/12/20 07:54:05;;;;;;;17.48;7.20;;;;;;;;;;5062795;28;20141;-88
2022/12/20 07:56:35;;;;;;;18.83;7.18;;;;;;;;;;5030215;28;20048;-89
2022/12/20 07:59:11;;;;;;;20.10;7.30;;;;;;;;;;5080903;28;20062;-88
2022/12/20 08:02:06;;;;;;;18.48;7.85;;;;;;;;;;5062452;28;20036;-88
2022/12/20 08:04:34;;;;;;;15.38;7.13;;;;;;;;;;5061968;28;20135;-89
2022/12/20 08:07:28;;;;;;;20.40;7.78;;;;;;;;;;5077808;28;20178;-89
2022/12/20 08:10:00;;;;;;;19.90;7.40;;;;;;;;;;5061912;28;20079;-89
2022/12/20 08:12:29;;;;;;;16.92;7.68;;;;;;;;;;5062265;28;20029;-88
2022/12/20 08:14:57;;;;;;;19.20;8.27;;;;;;;;;;5074033;28;20074;-89
2022/12/20 08:17:24;;;;;;;18.52;8.80;;;;;;;;;;5057832;28;20040;-88
2022/12/20 08:19:52;;;;;;;23.88;8.73;;;;;;;;;;5076322;28;20036;-88
2022/12/20 08:22:24;;;;;;;22.45;8.52;;;;;;;;;;5074224;28;20032;-88
2022/12/20 08:24:52;;;;;;;21.02;7.53;;;;;;;;;;5081635;28;20467;-89
2022/12/20 08:27:24;;;;;;;17.20;7.88;;;;;;;;;;5075584;28;20056;-89
2022/12/20 08:29:52;;;;;;;23.23;8.35;;;;;;;;;;5042062;28;20044;-88
2022/12/20 08:32:20;;;;;;;20.75;7.80;;;;;;;;;;5058669;28;20366;-88
2022/12/20 08:34:48;;;;;;;17.58;7.32;;;;;;;;;;5079347;28;20043;-88
2022/12/20 08:37:16;;;;;;;20.65;8.40;;;;;;;;;;5072310;28;20064;-88
2022/12/20 08:39:44;;;;;;;15.43;7.30;;;;;;;;;;5074064;28;20036;-88
2022/12/20 08:42:16;;;;;;;21.20;7.57;;;;;;;;;;5072950;28;20043;-88
2022/12/20 08:44:44;;;;;;;21.35;7.97;;;;;;;;;;5079239;28;20048;-88
2022/12/20 08:47:17;;;;;;;15.07;7.63;;;;;;;;;;5062434;28;20513;-88
2022/12/20 08:49:44;;;;;;;20.10;7.68;;;;;;;;;;5074813;28;20040;-88
2022/12/20 08:52:14;;;;;;;18.88;7.95;;;;;;;;;;5073293;28;20362;-89
2022/12/20 08:57:40;;;;;;;17.48;7.72;;;;;;;;;;5079606;28;20135;-88
2022/12/20 09:00:10;;;;;;;21.15;8.52;;;;;;;;;;5076677;28;20081;-88
2022/12/20 09:02:40;;;;;;;20.15;8.07;;;;;;;;;;5078172;28;20028;-89
2022/12/20 09:05:09;;;;;;;21.88;8.73;;;;;;;;;;5071865;28;20067;-88
2022/12/20 09:07:42;;;;;;;21.80;8.23;;;;;;;;;;5074083;28;20032;-89
2022/12/20 09:10:36;;;;;;;19.38;8.32;;;;;;;;;;5077632;28;20128;-89
2022/12/20 09:13:04;;;;;;;26.85;8.35;;;;;;;;;;5076507;28;20036;-89
2022/12/20 09:15:34;;;;;;;20.48;7.90;;;;;;;;;;5058164;28;20032;-89
2022/12/20 09:18:06;;;;;;;17.83;8.65;;;;;;;;;;5078232;28;20465;-89
2022/12/20 09:20:34;;;;;;;23.25;9.05;;;;;;;;;;5057583;28;20036;-89
2022/12/20 09:23:02;;;;;;;20.08;8.25;;;;;;;;;;5056507;28;20040;-88
2022/12/20 09:25:32;;;;;;;23.45;8.50;;;;;;;;;;5056110;28;20047;-88
2022/12/20 09:28:00;;;;;;;20.15;8.57;;;;;;;;;;5043983;28;20041;-89
2022/12/20 09:30:28;;;;;;;18.73;8.30;;;;;;;;;;5043290;28;20453;-89
2022/12/20 09:32:56;;;;;;;19.55;8.38;;;;;;;;;;5074680;28;20033;-89
2022/12/20 09:35:49;;;;;;;24.15;9.40;;;;;;;;;;5042751;28;20524;-88
2022/12/20 09:38:20;;;;;;;18.52;8.43;;;;;;;;;;5072247;28;20139;-89
2022/12/20 09:40:55;;;;;;;17.10;7.50;;;;;;;;;;5074969;28;20040;-89
2022/12/20 09:43:29;;;;;;;20.17;8.25;;;;;;;;;;5074836;28;20465;-88
2022/12/20 09:45:58;;;;;;;21.17;8.57;;;;;;;;;;5065012;28;20079;-89
2022/12/20 09:48:39;;;;;;;24.70;9.50;;;;;;;;;;5065901;28;20036;-89
2022/12/20 09:51:12;;;;;;;17.15;8.27;;;;;;;;;;5053261;28;20040;-89
2022/12/20 09:54:05;;;;;;;23.38;8.43;;;;;;;;;;5073790;28;20042;-88
2022/12/20 09:56:38;;;;;;;21.70;9.23;;;;;;;;;;5054002;28;20130;-89
2022/12/20 09:59:13;;;;;;;19.98;8.82;;;;;;;;;;5074701;28;20450;-89
2022/12/20 10:01:51;;;;;;;19.27;8.98;;;;;;;;;;5040939;28;20593;-88
2022/12/20 10:04:18;;;;;;;18.42;8.90;;;;;;;;;;5057657;28;20127;-89
2022/12/20 10:07:12;;;;;;;22.13;8.77;;;;;;;;;;5057399;28;20049;-89
2022/12/20 10:10:08;;;;;;;24.13;8.27;;;;;;;;;;5076585;28;20067;-88
2022/12/20 10:12:54;;;;;;;22.98;9.45;;;;;;;;;;5060560;28;20058;-89
2022/12/20 10:15:27;;;;;;;25.27;8.90;;;;;;;;;;5070383;28;20130;-88
2022/12/20 10:18:34;;;;;;;22.52;9.93;;;;;;;;;;5067676;28;20064;-88
2022/12/20 10:21:23;;;;;;;22.15;9.35;;;;;;;;;;5071503;28;20137;-88
2022/12/20 10:24:09;;;;;;;24.33;9.75;;;;;;;;;;5057973;28;20521;-88
2022/12/20 10:26:42;;;;;;;24.58;9.90;;;;;;;;;;5059174;28;20042;-88
2022/12/20 10:29:10;;;;;;;23.17;9.07;;;;;;;;;;5071485;28;20085;-88
2022/12/20 10:32:12;;;;;;;24.90;9.98;;;;;;;;;;5054878;28;20060;-88
2022/12/20 10:35:15;;;;;;;24.92;11.00;;;;;;;;;;5050533;28;20044;-88
2022/12/20 10:38:11;;;;;;;23.55;9.73;;;;;;;;;;5073094;28;20506;-88
2022/12/20 10:40:57;;;;;;;26.63;10.23;;;;;;;;;;5074541;28;20484;-88
2022/12/20 10:44:01;;;;;;;19.35;9.35;;;;;;;;;;5062533;28;20047;-88
2022/12/20 10:46:41;;;;;;;21.52;8.73;;;;;;;;;;5071020;28;20563;-89
2022/12/20 10:49:29;;;;;;;17.70;8.27;;;;;;;;;;5076210;28;20036;-89
2022/12/20 10:52:02;;;;;;;20.27;8.35;;;;;;;;;;5074826;28;20024;-89
2022/12/20 10:54:42;;;;;;;20.25;8.55;;;;;;;;;;5078567;28;20139;-88
2022/12/20 10:57:23;;;;;;;17.45;8.18;;;;;;;;;;5072638;28;20048;-89
2022/12/20 10:59:53;;;;;;;14.88;8.40;;;;;;;;;;5048606;28;20062;-88
2022/12/20 11:02:28;;;;;;;18.65;8.95;;;;;;;;;;5051335;28;20442;-88
2022/12/20 11:05:09;;;;;;;16.67;7.85;;;;;;;;;;5075199;28;20620;-89
2022/12/20 11:07:58;;;;;;;15.93;7.75;;;;;;;;;;5067996;28;20040;-89
2022/12/20 11:11:17;;;;;;;14.02;7.07;;;;;;;;;;5058755;28;20060;-89
2022/12/20 11:13:45;;;;;;;13.35;6.93;;;;;;;;;;5076649;28;20147;-89
2022/12/20 11:16:25;;;;;;;16.30;7.75;;;;;;;;;;5077677;28;20051;-89
2022/12/20 11:19:20;;;;;;;14.40;6.95;;;;;;;;;;5057620;28;20482;-89
2022/12/20 11:22:04;;;;;;;16.33;7.25;;;;;;;;;;5075540;28;20172;-88
2022/12/20 11:24:52;;;;;;;17.10;7.68;;;;;;;;;;5058670;28;20067;-89
2022/12/20 11:27:40;;;;;;;19.67;7.70;;;;;;;;;;5078966;28;20040;-89
2022/12/20 11:30:32;;;;;;;16.88;7.70;;;;;;;;;;5045855;28;20124;-89
2022/12/20 11:33:35;;;;;;;17.50;6.63;;;;;;;;;;5082813;28;20036;-89
2022/12/20 11:36:11;;;;;;;14.00;6.57;;;;;;;;;;5081916;28;20045;-89
2022/12/20 11:39:02;;;;;;;13.68;6.78;;;;;;;;;;5076500;28;20123;-89
2022/12/20 11:41:51;;;;;;;16.20;7.70;;;;;;;;;;5081986;28;20041;-89
2022/12/20 11:45:02;;;;;;;18.65;7.00;;;;;;;;;;5077661;28;20545;-89
2022/12/20 11:48:04;;;;;;;14.68;7.10;;;;;;;;;;5010791;28;20105;-89
2022/12/20 11:50:42;;;;;;;13.13;6.28;;;;;;;;;;4984284;28;20054;-90
2022/12/20 11:53:30;;;;;;;14.07;6.90;;;;;;;;;;5013235;28;20056;-89
2022/12/20 11:56:55;;;;;;;12.15;6.93;;;;;;;;;;4996227;28;20037;-89
2022/12/20 11:59:51;;;;;;;15.93;6.88;;;;;;;;;;4993892;28;20195;-89
2022/12/20 12:02:27;;;;;;;13.07;6.50;;;;;;;;;;5014241;28;20044;-89
2022/12/20 12:05:03;;;;;;;12.93;6.00;;;;;;;;;;4999533;28;20072;-88
2022/12/20 12:08:04;;;;;;;13.75;7.15;;;;;;;;;;5018355;28;20037;-88
2022/12/20 12:10:43;;;;;;;11.77;6.07;;;;;;;;;;5014855;28;21986;-88
2022/12/20 12:13:17;;;;;;;17.42;6.38;;;;;;;;;;5000293;28;20136;-88
2022/12/20 12:16:05;;;;;;;11.23;6.50;;;;;;;;;;5014303;28;20050;-88
2022/12/20 12:18:41;;;;;;;11.63;5.90;;;;;;;;;;5013830;28;20144;-88
2022/12/20 12:21:39;;;;;;;11.70;6.43;;;;;;;;;;5014677;28;20052;-88
2022/12/20 12:24:13;;;;;;;12.27;5.28;;;;;;;;;;5031306;28;20080;-88
2022/12/20 12:27:04;;;;;;;13.38;6.32;;;;;;;;;;5072375;28;20119;-88
2022/12/20 12:30:04;;;;;;;16.50;7.47;;;;;;;;;;5073625;28;20044;-89
2022/12/20 12:32:54;;;;;;;11.90;6.28;;;;;;;;;;5078302;28;20047;-88
2022/12/20 12:35:53;;;;;;;13.80;7.35;;;;;;;;;;5060774;28;20075;-88
2022/12/20 12:38:32;;;;;;;13.07;7.28;;;;;;;;;;5062041;28;20348;-88
2022/12/20 12:41:25;;;;;;;15.98;7.25;;;;;;;;;;5079745;28;20047;-88
2022/12/20 12:43:55;;;;;;;18.27;7.15;;;;;;;;;;5044371;28;20048;-89
2022/12/20 12:46:34;;;;;;;12.23;6.40;;;;;;;;;;5075033;28;20506;-89
2022/12/20 12:49:16;;;;;;;13.60;6.60;;;;;;;;;;5075906;28;20060;-89
2022/12/20 12:51:54;;;;;;;13.52;6.07;;;;;;;;;;5062315;28;20059;-89
2022/12/20 12:54:46;;;;;;;12.57;5.97;;;;;;;;;;5075131;28;20033;-88
2022/12/20 12:57:17;;;;;;;16.45;6.95;;;;;;;;;;5057634;28;20401;-89
2022/12/20 12:59:47;;;;;;;12.05;5.35;;;;;;;;;;5056527;28;20058;-88
2022/12/20 13:02:14;;;;;;;11.05;5.28;;;;;;;;;;5080833;28;20040;-88
2022/12/20 13:04:57;;;;;;;11.63;6.05;;;;;;;;;;5060654;28;20598;-88
2022/12/20 13:07:30;;;;;;;13.32;5.57;;;;;;;;;;5071691;28;20070;-88
2022/12/20 13:10:00;;;;;;;11.23;5.55;;;;;;;;;;5058257;28;20036;-88
2022/12/20 13:12:35;;;;;;;9.40;5.28;;;;;;;;;;5058244;28;20048;-88
2022/12/20 13:15:22;;;;;;;11.05;4.95;;;;;;;;;;5070506;28;20063;-88
2022/12/20 13:18:09;;;;;;;10.43;5.75;;;;;;;;;;5057495;28;20122;-89
2022/12/20 13:20:38;;;;;;;13.05;6.25;;;;;;;;;;5058334;28;20059;-88
2022/12/20 13:23:06;;;;;;;10.13;5.72;;;;;;;;;;5061331;28;20744;-88
2022/12/20 13:25:47;;;;;;;10.60;5.68;;;;;;;;;;5073001;28;20043;-88
2022/12/20 13:28:15;;;;;;;10.65;5.13;;;;;;;;;;5078063;28;20040;-88
2022/12/20 13:30:47;;;;;;;13.20;6.00;;;;;;;;;;5060664;28;20585;-88
2022/12/20 13:33:47;;;;;;;12.15;5.63;;;;;;;;;;5079075;28;20042;-88
2022/12/20 13:37:24;;;;;;;14.15;6.70;;;;;;;;;;5077540;28;20429;-88
2022/12/20 13:39:53;;;;;;;11.07;6.50;;;;;;;;;;5056797;28;20603;-89
2022/12/20 13:42:20;;;;;;;11.57;6.28;;;;;;;;;;5058441;28;20090;-88
2022/12/20 13:44:53;;;;;;;10.35;6.43;;;;;;;;;;5077159;28;20036;-89
2022/12/20 13:48:00;;;;;;;12.77;6.20;;;;;;;;;;5076424;28;20541;-88
2022/12/20 13:50:40;;;;;;;15.60;6.07;;;;;;;;;;4990468;28;20043;-90
2022/12/20 13:53:17;;;;;;;13.38;7.05;;;;;;;;;;4987851;28;20042;-89
2022/12/20 13:55:47;;;;;;;12.27;6.30;;;;;;;;;;4998935;28;20042;-88
2022/12/20 13:58:26;;;;;;;13.77;6.28;;;;;;;;;;4988271;28;20061;-88
2022/12/20 14:01:22;;;;;;;12.85;6.15;;;;;;;;;;4998683;28;20050;-89
2022/12/20 14:03:51;;;;;;;9.77;5.32;;;;;;;;;;4997390;28;20038;-89
2022/12/20 14:06:23;;;;;;;16.58;6.60;;;;;;;;;;4989684;28;20073;-89
2022/12/20 14:08:54;;;;;;;9.65;5.55;;;;;;;;;;4989340;28;20116;-88
2022/12/20 14:11:25;;;;;;;16.13;6.65;;;;;;;;;;4988660;28;20062;-88
2022/12/20 14:13:59;;;;;;;18.52;6.70;;;;;;;;;;4997779;28;20144;-89
2022/12/20 14:16:32;;;;;;;12.38;6.07;;;;;;;;;;4988366;28;21056;-89
2022/12/20 14:19:11;;;;;;;12.73;6.22;;;;;;;;;;4998350;28;20085;-88
2022/12/20 14:21:44;;;;;;;12.02;5.93;;;;;;;;;;4999622;28;20049;-90
2022/12/20 14:24:18;;;;;;;12.05;6.45;;;;;;;;;;5030379;28;20288;-89
2022/12/20 14:26:50;;;;;;;12.23;6.40;;;;;;;;;;5077273;28;20682;-89
2022/12/20 14:29:27;;;;;;;12.63;5.50;;;;;;;;;;5060576;28;20044;-89
2022/12/20 14:32:21;;;;;;;12.23;5.40;;;;;;;;;;5078637;28;20111;-89
2022/12/20 14:34:54;;;;;;;11.98;5.80;;;;;;;;;;5072512;28;20117;-89
2022/12/20 14:37:22;;;;;;;14.90;6.47;;;;;;;;;;5057572;28;20044;-88
2022/12/20 14:39:56;;;;;;;11.77;5.60;;;;;;;;;;5078959;28;20427;-89
2022/12/20 14:42:34;;;;;;;10.35;5.30;;;;;;;;;;5028128;28;20515;-90
2022/12/20 14:45:09;;;;;;;12.60;5.15;;;;;;;;;;5060209;28;20494;-89
2022/12/20 14:47:47;;;;;;;12.57;6.07;;;;;;;;;;5079088;28;20052;-89
2022/12/20 14:50:29;;;;;;;13.07;5.65;;;;;;;;;;5080925;28;20096;-89
2022/12/20 14:52:57;;;;;;;11.95;5.53;;;;;;;;;;5078069;28;20040;-89
2022/12/20 14:55:35;;;;;;;14.32;5.95;;;;;;;;;;5076679;28;20063;-89
2022/12/20 14:58:28;;;;;;;15.05;5.90;;;;;;;;;;5077890;28;20050;-89
2022/12/20 15:01:14;;;;;;;8.85;5.78;;;;;;;;;;5059802;28;20114;-89
2022/12/20 15:03:57;;;;;;;11.82;5.88;;;;;;;;;;5078521;28;20063;-89
2022/12/20 15:06:48;;;;;;;12.15;5.65;;;;;;;;;;5046280;28;20032;-88
2022/12/20 15:09:20;;;;;;;12.48;6.15;;;;;;;;;;5082526;28;20047;-89
2022/12/20 15:11:50;;;;;;;12.18;5.70;;;;;;;;;;5075038;28;20036;-89
2022/12/20 15:14:38;;;;;;;12.20;5.95;;;;;;;;;;5060241;28;20451;-88
2022/12/20 15:17:13;;;;;;;13.55;6.43;;;;;;;;;;5078191;28;20052;-89
2022/12/20 15:19:40;;;;;;;13.63;6.60;;;;;;;;;;5060057;28;20048;-89
2022/12/20 15:22:16;;;;;;;14.68;7.07;;;;;;;;;;5043069;28;20036;-89
2022/12/20 15:25:17;;;;;;;14.27;6.95;;;;;;;;;;5049004;28;20405;-89
2022/12/20 15:27:44;;;;;;;13.68;6.72;;;;;;;;;;5071502;28;20036;-90
2022/12/20 15:30:13;;;;;;;11.05;5.85;;;;;;;;;;5078907;28;20044;-90
2022/12/20 15:32:41;;;;;;;11.10;6.60;;;;;;;;;;5041409;28;20131;-88
2022/12/20 15:35:47;;;;;;;12.82;6.82;;;;;;;;;;5078370;28;20036;-88
2022/12/20 15:38:23;;;;;;;13.65;6.88;;;;;;;;;;5042356;28;20048;-88
2022/12/20 15:41:16;;;;;;;16.48;7.13;;;;;;;;;;5028090;28;20674;-89
2022/12/20 15:43:57;;;;;;;11.35;6.35;;;;;;;;;;5077458;28;20109;-89